Time;durP1;ratioP1;P1;durP2;ratioP2;P2;SDS_P1;SDS_P2;PMS_P1;PMS_P2;Temp;Humidity;BMP_temperature;BMP_pressure;BME280_temperature;BME280_humidity;BME280_pressure;Samples;Min_cycle;Max_cycle;Signal;HPM_P1;HPM_P2
2021/01/15 00:00:06;;;;;;;22.63;15.13;;;;;;;;;;2070510;28;20772;-57
2021/01/15 00:01:07;;;;;;;20.97;14.30;;;;;;;;;;2071415;28;20634;-58
2021/01/15 00:02:08;;;;;;;19.17;15.67;;;;;;;;;;2063544;28;20494;-59
2021/01/15 00:03:08;;;;;;;21.13;15.60;;;;;;;;;;2064682;28;20189;-55
2021/01/15 00:04:08;;;;;;;19.67;14.93;;;;;;;;;;2074229;28;20235;-61
2021/01/15 00:05:08;;;;;;;21.17;15.80;;;;;;;;;;2057192;28;20194;-60
2021/01/15 00:06:09;;;;;;;22.37;15.50;;;;;;;;;;2057768;28;20264;-59
2021/01/15 00:07:09;;;;;;;22.53;15.53;;;;;;;;;;2072391;28;20508;-58
2021/01/15 00:08:09;;;;;;;20.17;15.93;;;;;;;;;;2070219;28;20182;-59
2021/01/15 00:09:09;;;;;;;21.03;15.63;;;;;;;;;;2072632;28;20197;-58
2021/01/15 00:10:10;;;;;;;21.50;15.00;;;;;;;;;;2072999;28;20271;-57
2021/01/15 00:11:20;;;;;;;22.40;15.83;;;;;;;;;;2070318;28;20190;-59
2021/01/15 00:12:21;;;;;;;21.17;15.53;;;;;;;;;;2074178;28;20243;-59
2021/01/15 00:13:21;;;;;;;21.70;15.60;;;;;;;;;;2065354;28;20173;-58
2021/01/15 00:14:21;;;;;;;19.93;15.97;;;;;;;;;;2065305;28;20743;-60
2021/01/15 00:15:21;;;;;;;21.30;15.93;;;;;;;;;;2058704;28;20177;-58
2021/01/15 00:16:24;;;;;;;21.33;16.10;;;;;;;;;;2052262;28;20202;-60
2021/01/15 00:17:31;;;;;;;22.43;15.40;;;;;;;;;;2062448;28;20182;-57
2021/01/15 00:18:32;;;;;;;20.53;15.43;;;;;;;;;;2072784;28;20410;-58
2021/01/15 00:24:02;;;;;;;22.50;15.13;;;;;;;;;;2073109;28;20195;-58
2021/01/15 00:25:02;;;;;;;19.07;15.00;;;;;;;;;;2070046;28;20433;-59
2021/01/15 00:26:02;;;;;;;20.37;15.70;;;;;;;;;;2071732;28;20410;-60
2021/01/15 00:27:03;;;;;;;20.87;15.33;;;;;;;;;;2065094;28;20233;-57
2021/01/15 00:28:03;;;;;;;20.00;16.23;;;;;;;;;;2065406;28;20182;-59
2021/01/15 00:29:03;;;;;;;20.80;15.57;;;;;;;;;;2067334;28;20213;-56
2021/01/15 00:30:05;;;;;;;21.33;16.37;;;;;;;;;;2063688;28;20903;-58
2021/01/15 00:31:06;;;;;;;18.73;14.87;;;;;;;;;;2072267;28;20638;-58
2021/01/15 00:32:06;;;;;;;21.83;16.00;;;;;;;;;;2075686;28;20173;-59
2021/01/15 00:33:06;;;;;;;21.20;16.63;;;;;;;;;;2068126;28;20599;-59
2021/01/15 00:34:08;;;;;;;21.97;16.17;;;;;;;;;;2074038;28;20180;-57
2021/01/15 00:35:08;;;;;;;25.73;17.13;;;;;;;;;;2068560;28;20174;-60
2021/01/15 00:36:09;;;;;;;19.90;16.43;;;;;;;;;;2070293;28;20669;-58
2021/01/15 00:37:10;;;;;;;22.63;16.70;;;;;;;;;;2076856;28;20247;-62
2021/01/15 00:38:10;;;;;;;25.00;16.90;;;;;;;;;;2065870;28;20227;-60
2021/01/15 00:39:14;;;;;;;23.97;18.53;;;;;;;;;;2066894;28;20207;-61
2021/01/15 00:40:15;;;;;;;22.53;17.03;;;;;;;;;;2072374;28;20181;-59
2021/01/15 00:41:15;;;;;;;23.07;17.43;;;;;;;;;;2074479;28;20457;-60
2021/01/15 00:42:15;;;;;;;22.30;17.53;;;;;;;;;;2064185;28;20261;-60
2021/01/15 00:43:16;;;;;;;25.83;18.00;;;;;;;;;;2058858;28;20192;-65
2021/01/15 00:44:16;;;;;;;23.27;17.33;;;;;;;;;;2066914;28;20185;-61
2021/01/15 00:45:16;;;;;;;24.90;18.13;;;;;;;;;;2071507;28;20185;-60
2021/01/15 00:46:31;;;;;;;26.50;17.30;;;;;;;;;;2065129;28;20216;-60
2021/01/15 00:47:31;;;;;;;23.17;17.67;;;;;;;;;;2059802;28;20601;-58
2021/01/15 00:48:32;;;;;;;26.83;20.00;;;;;;;;;;2057184;28;20182;-61
2021/01/15 00:49:32;;;;;;;25.73;18.07;;;;;;;;;;2065738;28;20569;-55
2021/01/15 00:50:32;;;;;;;23.67;18.00;;;;;;;;;;2071103;28;20181;-60
2021/01/15 00:51:33;;;;;;;24.60;19.27;;;;;;;;;;2066390;28;20919;-58
2021/01/15 00:52:33;;;;;;;24.93;18.03;;;;;;;;;;2070561;28;20238;-57
2021/01/15 00:53:34;;;;;;;24.60;19.10;;;;;;;;;;2064208;28;20350;-56
2021/01/15 00:54:34;;;;;;;27.77;20.17;;;;;;;;;;2061497;28;20294;-59
2021/01/15 00:55:34;;;;;;;28.60;20.33;;;;;;;;;;2056258;28;20206;-58
2021/01/15 00:56:35;;;;;;;27.20;19.70;;;;;;;;;;2057003;28;20228;-58
2021/01/15 00:57:39;;;;;;;23.87;18.27;;;;;;;;;;2057325;28;20315;-58
2021/01/15 00:58:39;;;;;;;23.60;18.50;;;;;;;;;;2057050;28;20166;-58
2021/01/15 00:59:40;;;;;;;26.73;19.47;;;;;;;;;;2062655;28;20180;-58
2021/01/15 01:00:51;;;;;;;22.33;17.13;;;;;;;;;;2064532;28;20185;-59
2021/01/15 01:02:04;;;;;;;25.97;18.57;;;;;;;;;;2057457;28;20510;-58
2021/01/15 01:03:06;;;;;;;23.90;18.53;;;;;;;;;;2054672;28;20404;-59
2021/01/15 01:04:06;;;;;;;25.13;18.13;;;;;;;;;;2065125;28;20399;-60
2021/01/15 01:05:11;;;;;;;27.10;19.50;;;;;;;;;;2071787;28;20183;-61
2021/01/15 01:06:13;;;;;;;27.17;20.13;;;;;;;;;;2064208;28;20227;-58
2021/01/15 01:07:13;;;;;;;24.53;17.97;;;;;;;;;;2065034;28;20417;-60
2021/01/15 01:08:13;;;;;;;25.50;18.90;;;;;;;;;;2069033;28;20442;-56
2021/01/15 01:09:13;;;;;;;25.50;19.37;;;;;;;;;;2072530;28;20299;-62
2021/01/15 01:10:14;;;;;;;26.63;19.37;;;;;;;;;;2072812;28;20629;-58
2021/01/15 01:11:18;;;;;;;25.47;18.53;;;;;;;;;;2073356;28;20181;-60
2021/01/15 01:12:19;;;;;;;25.13;18.57;;;;;;;;;;2077093;28;20201;-59
2021/01/15 01:13:19;;;;;;;25.70;19.27;;;;;;;;;;2074968;28;20466;-60
2021/01/15 01:14:19;;;;;;;26.73;19.00;;;;;;;;;;2064528;28;20181;-61
2021/01/15 01:15:20;;;;;;;27.07;18.70;;;;;;;;;;2062342;28;20654;-59
2021/01/15 01:16:21;;;;;;;26.13;18.50;;;;;;;;;;2071891;28;20181;-59
2021/01/15 01:17:21;;;;;;;27.47;20.53;;;;;;;;;;2071526;28;20177;-56
2021/01/15 01:18:21;;;;;;;26.83;19.87;;;;;;;;;;2071894;28;20497;-60
2021/01/15 01:19:22;;;;;;;24.67;18.13;;;;;;;;;;2071893;28;20803;-60
2021/01/15 01:20:22;;;;;;;26.20;20.53;;;;;;;;;;2072854;28;20173;-56
2021/01/15 01:21:23;;;;;;;24.23;19.17;;;;;;;;;;2062772;28;20276;-58
2021/01/15 01:22:24;;;;;;;25.07;18.13;;;;;;;;;;2057509;28;20740;-58
2021/01/15 01:23:24;;;;;;;24.70;18.17;;;;;;;;;;2055645;28;20443;-59
2021/01/15 01:24:25;;;;;;;25.83;18.87;;;;;;;;;;2065674;28;20189;-57
2021/01/15 01:25:26;;;;;;;25.30;18.77;;;;;;;;;;2062602;28;20178;-56
2021/01/15 01:26:26;;;;;;;25.77;18.63;;;;;;;;;;2066693;28;20426;-58
2021/01/15 01:27:26;;;;;;;24.10;18.67;;;;;;;;;;2074603;28;20186;-59
2021/01/15 01:28:27;;;;;;;27.73;19.60;;;;;;;;;;2059824;28;20178;-58
2021/01/15 01:29:27;;;;;;;23.80;18.97;;;;;;;;;;2060350;28;20206;-56
2021/01/15 01:30:27;;;;;;;24.30;18.60;;;;;;;;;;2074282;28;20883;-59
2021/01/15 01:31:28;;;;;;;25.30;17.43;;;;;;;;;;2076277;28;20232;-57
2021/01/15 01:32:28;;;;;;;25.43;18.43;;;;;;;;;;2071435;28;20197;-59
2021/01/15 01:33:28;;;;;;;28.20;19.13;;;;;;;;;;2064795;28;20208;-59
2021/01/15 01:34:29;;;;;;;26.60;19.13;;;;;;;;;;2060634;28;20630;-57
2021/01/15 01:35:29;;;;;;;23.83;18.50;;;;;;;;;;2062283;28;20190;-58
2021/01/15 01:36:29;;;;;;;25.43;19.07;;;;;;;;;;2070655;28;20654;-57
2021/01/15 01:37:30;;;;;;;27.03;19.03;;;;;;;;;;2062900;28;20182;-59
2021/01/15 01:38:30;;;;;;;29.73;20.00;;;;;;;;;;2064411;28;20170;-58
2021/01/15 01:39:30;;;;;;;28.47;19.80;;;;;;;;;;2071428;28;20188;-56
2021/01/15 01:40:31;;;;;;;28.13;20.40;;;;;;;;;;2064499;28;20182;-56
2021/01/15 01:41:31;;;;;;;28.47;19.80;;;;;;;;;;2063653;28;20666;-58
2021/01/15 01:42:31;;;;;;;27.73;18.67;;;;;;;;;;2071947;28;20184;-58
2021/01/15 01:43:31;;;;;;;31.33;19.77;;;;;;;;;;2064955;28;20186;-61
2021/01/15 01:44:32;;;;;;;30.93;20.60;;;;;;;;;;2064926;28;20162;-58
2021/01/15 01:45:32;;;;;;;25.87;19.13;;;;;;;;;;2071137;28;20219;-59
2021/01/15 01:46:33;;;;;;;26.10;19.63;;;;;;;;;;2063665;28;20856;-57
2021/01/15 01:47:33;;;;;;;27.13;18.50;;;;;;;;;;2060538;28;20225;-60
2021/01/15 01:48:34;;;;;;;28.03;19.83;;;;;;;;;;2070601;28;20267;-59
2021/01/15 01:49:35;;;;;;;27.90;19.47;;;;;;;;;;2066199;28;20700;-57
2021/01/15 01:50:36;;;;;;;24.80;18.93;;;;;;;;;;2072088;28;20189;-57
2021/01/15 01:51:37;;;;;;;31.53;21.17;;;;;;;;;;2071079;28;20228;-57
2021/01/15 01:52:38;;;;;;;28.17;19.30;;;;;;;;;;2064610;28;20992;-59
2021/01/15 01:53:39;;;;;;;31.47;20.00;;;;;;;;;;2064708;28;20246;-58
2021/01/15 01:54:40;;;;;;;27.90;19.03;;;;;;;;;;2071304;28;20658;-57
2021/01/15 01:55:41;;;;;;;31.43;20.17;;;;;;;;;;2068967;28;20492;-59
2021/01/15 01:56:42;;;;;;;28.23;20.03;;;;;;;;;;2073380;28;20410;-58
2021/01/15 01:57:42;;;;;;;25.80;18.70;;;;;;;;;;2073626;28;20211;-58
2021/01/15 01:58:42;;;;;;;33.77;23.47;;;;;;;;;;2066247;28;20185;-58
2021/01/15 01:59:43;;;;;;;34.93;20.57;;;;;;;;;;2055922;28;20178;-59
2021/01/15 02:00:46;;;;;;;31.00;21.47;;;;;;;;;;2062694;28;20220;-59
2021/01/15 02:01:46;;;;;;;29.80;19.97;;;;;;;;;;2075337;28;20181;-60
2021/01/15 02:02:47;;;;;;;31.37;20.87;;;;;;;;;;2063845;28;20443;-59
2021/01/15 02:03:47;;;;;;;28.07;20.70;;;;;;;;;;2064544;28;20174;-57
2021/01/15 02:04:47;;;;;;;26.23;19.03;;;;;;;;;;2068749;28;20205;-56
2021/01/15 02:05:47;;;;;;;27.87;19.97;;;;;;;;;;2072287;28;20640;-58
2021/01/15 02:06:48;;;;;;;30.73;20.70;;;;;;;;;;2071894;28;20177;-59
2021/01/15 02:07:52;;;;;;;29.47;21.10;;;;;;;;;;2071520;28;20185;-58
2021/01/15 02:08:52;;;;;;;33.90;21.33;;;;;;;;;;2073938;28;20266;-58
2021/01/15 02:10:12;;;;;;;33.90;20.77;;;;;;;;;;2074476;28;20456;-57
2021/01/15 02:11:36;;;;;;;31.70;20.23;;;;;;;;;;2073044;28;20231;-60
2021/01/15 02:12:55;;;;;;;32.03;21.03;;;;;;;;;;2058052;28;20523;-59
2021/01/15 02:14:01;;;;;;;34.00;20.00;;;;;;;;;;2072781;28;20509;-59
2021/01/15 02:15:07;;;;;;;29.40;20.17;;;;;;;;;;2072236;28;20407;-58
2021/01/15 02:16:09;;;;;;;32.23;21.07;;;;;;;;;;2074621;28;20419;-59
2021/01/15 02:17:13;;;;;;;32.60;21.40;;;;;;;;;;2066231;28;20471;-59
2021/01/15 02:18:24;;;;;;;30.23;20.80;;;;;;;;;;2065172;28;20415;-60
2021/01/15 02:19:25;;;;;;;31.37;21.50;;;;;;;;;;2075093;28;20422;-60
2021/01/15 02:20:45;;;;;;;30.27;20.30;;;;;;;;;;2076977;28;20440;-59
2021/01/15 02:22:10;;;;;;;34.20;20.13;;;;;;;;;;2074769;28;20197;-58
2021/01/15 02:23:21;;;;;;;30.77;20.17;;;;;;;;;;2071058;28;20525;-59
2021/01/15 02:24:33;;;;;;;33.40;21.50;;;;;;;;;;2062878;28;20506;-59
2021/01/15 02:25:37;;;;;;;29.83;19.63;;;;;;;;;;2066504;28;20426;-57
2021/01/15 02:26:37;;;;;;;35.87;21.53;;;;;;;;;;2064018;28;20598;-55
2021/01/15 02:27:50;;;;;;;30.67;21.23;;;;;;;;;;2062759;28;20812;-59
2021/01/15 02:28:59;;;;;;;30.37;21.60;;;;;;;;;;2071334;28;20268;-62
2021/01/15 02:30:06;;;;;;;31.50;20.83;;;;;;;;;;2061811;28;20790;-59
2021/01/15 02:31:09;;;;;;;33.43;20.10;;;;;;;;;;2060240;28;20510;-58
2021/01/15 02:32:09;;;;;;;30.27;21.03;;;;;;;;;;2067914;28;20414;-61
2021/01/15 02:33:28;;;;;;;29.53;21.10;;;;;;;;;;2070328;28;20406;-55
2021/01/15 02:34:36;;;;;;;32.60;21.93;;;;;;;;;;2071617;28;20192;-60
2021/01/15 02:35:48;;;;;;;28.83;20.53;;;;;;;;;;2070345;28;20938;-57
2021/01/15 02:37:12;;;;;;;32.20;22.10;;;;;;;;;;2069584;28;20966;-62
2021/01/15 02:38:19;;;;;;;30.30;20.00;;;;;;;;;;2056748;28;20438;-56
2021/01/15 02:39:28;;;;;;;30.23;20.43;;;;;;;;;;2071053;28;20411;-57
2021/01/15 02:40:32;;;;;;;28.27;19.27;;;;;;;;;;2074498;28;20500;-60
2021/01/15 02:41:32;;;;;;;30.53;20.30;;;;;;;;;;2070049;28;20812;-58
2021/01/15 02:42:35;;;;;;;30.07;20.90;;;;;;;;;;2074444;28;20466;-58
2021/01/15 02:43:35;;;;;;;33.37;20.77;;;;;;;;;;2072435;28;20178;-58
2021/01/15 02:44:37;;;;;;;29.37;20.87;;;;;;;;;;2064976;28;20415;-57
2021/01/15 02:45:37;;;;;;;29.60;20.33;;;;;;;;;;2066587;28;20662;-58
2021/01/15 02:46:43;;;;;;;33.97;19.93;;;;;;;;;;2069962;28;20474;-61
2021/01/15 02:47:51;;;;;;;30.13;20.90;;;;;;;;;;2074619;28;20209;-61
2021/01/15 02:48:52;;;;;;;28.60;19.87;;;;;;;;;;2072984;28;20537;-60
2021/01/15 02:49:55;;;;;;;27.90;20.17;;;;;;;;;;2076066;28;20418;-60
2021/01/15 02:50:55;;;;;;;29.73;19.60;;;;;;;;;;2073459;28;20394;-58
2021/01/15 02:51:56;;;;;;;29.50;19.83;;;;;;;;;;2072648;28;20436;-59
2021/01/15 02:52:56;;;;;;;28.17;19.63;;;;;;;;;;2073645;28;20632;-60
2021/01/15 02:53:57;;;;;;;33.93;21.10;;;;;;;;;;2064706;28;20217;-59
2021/01/15 02:54:57;;;;;;;30.80;21.20;;;;;;;;;;2067606;28;20176;-58
2021/01/15 02:55:57;;;;;;;32.37;19.63;;;;;;;;;;2072937;28;20240;-59
2021/01/15 02:56:57;;;;;;;26.43;19.40;;;;;;;;;;2071613;28;20197;-61
2021/01/15 02:57:58;;;;;;;31.43;20.10;;;;;;;;;;2062148;28;20225;-60
2021/01/15 02:58:58;;;;;;;30.87;20.00;;;;;;;;;;2066413;28;20268;-59
2021/01/15 02:59:58;;;;;;;33.83;20.97;;;;;;;;;;2064479;28;20190;-59
2021/01/15 03:00:59;;;;;;;28.33;19.37;;;;;;;;;;2066088;28;20174;-62
2021/01/15 03:01:59;;;;;;;27.87;20.63;;;;;;;;;;2064531;28;20204;-57
2021/01/15 03:03:08;;;;;;;28.63;19.60;;;;;;;;;;2064376;28;20190;-60
2021/01/15 03:04:27;;;;;;;30.37;19.77;;;;;;;;;;2077456;28;20268;-57
2021/01/15 03:05:38;;;;;;;29.50;20.07;;;;;;;;;;2068362;28;20963;-59
2021/01/15 03:06:43;;;;;;;25.03;18.70;;;;;;;;;;2067713;28;20404;-60
2021/01/15 03:07:45;;;;;;;27.30;19.00;;;;;;;;;;2075452;28;20437;-60
2021/01/15 03:08:46;;;;;;;28.53;19.30;;;;;;;;;;2062599;28;20424;-56
2021/01/15 03:09:47;;;;;;;32.80;20.67;;;;;;;;;;2056326;28;20427;-59
2021/01/15 03:10:48;;;;;;;29.57;19.27;;;;;;;;;;2066877;28;20423;-58
2021/01/15 03:11:51;;;;;;;26.67;19.13;;;;;;;;;;2069698;28;20704;-58
2021/01/15 03:12:53;;;;;;;29.37;20.70;;;;;;;;;;2067526;28;20478;-57
2021/01/15 03:13:54;;;;;;;30.03;19.67;;;;;;;;;;2071811;28;20468;-57
2021/01/15 03:14:55;;;;;;;27.60;19.27;;;;;;;;;;2071748;28;20427;-56
2021/01/15 03:16:00;;;;;;;24.63;17.73;;;;;;;;;;2068164;28;20415;-59
2021/01/15 03:17:03;;;;;;;25.30;18.90;;;;;;;;;;2070906;28;20181;-64
2021/01/15 03:18:06;;;;;;;27.60;19.53;;;;;;;;;;2069039;28;20528;-59
2021/01/15 03:19:06;;;;;;;27.77;19.37;;;;;;;;;;2068192;28;20487;-56
2021/01/15 03:20:07;;;;;;;28.93;20.17;;;;;;;;;;2062424;28;20465;-60
2021/01/15 03:21:08;;;;;;;27.67;18.37;;;;;;;;;;2061353;28;20174;-56
2021/01/15 03:22:28;;;;;;;27.00;18.73;;;;;;;;;;2071826;28;20464;-59
2021/01/15 03:23:34;;;;;;;24.73;17.80;;;;;;;;;;2071920;28;20599;-59
2021/01/15 03:24:34;;;;;;;27.07;18.57;;;;;;;;;;2061026;28;20423;-55
2021/01/15 03:25:34;;;;;;;30.97;19.07;;;;;;;;;;2060928;28;20435;-57
2021/01/15 03:26:35;;;;;;;26.43;18.83;;;;;;;;;;2070815;28;20656;-60
2021/01/15 03:27:46;;;;;;;25.53;19.10;;;;;;;;;;2071184;28;20653;-57
2021/01/15 03:28:46;;;;;;;26.10;18.73;;;;;;;;;;2071822;28;20208;-58
2021/01/15 03:29:47;;;;;;;25.90;19.50;;;;;;;;;;2069502;28;20451;-56
2021/01/15 03:30:47;;;;;;;27.60;19.37;;;;;;;;;;2070985;28;20239;-55
2021/01/15 03:31:47;;;;;;;27.30;19.67;;;;;;;;;;2064326;28;20219;-56
2021/01/15 03:32:48;;;;;;;28.63;18.97;;;;;;;;;;2064049;28;20208;-57
2021/01/15 03:33:48;;;;;;;26.23;19.93;;;;;;;;;;2060700;28;20178;-54
2021/01/15 03:34:49;;;;;;;29.47;19.40;;;;;;;;;;2068563;28;20423;-56
2021/01/15 03:35:49;;;;;;;28.97;19.43;;;;;;;;;;2074543;28;20211;-56
2021/01/15 03:36:49;;;;;;;28.80;19.43;;;;;;;;;;2070640;28;20216;-57
2021/01/15 03:37:51;;;;;;;28.47;20.27;;;;;;;;;;2071604;28;20256;-56
2021/01/15 03:38:51;;;;;;;28.20;19.47;;;;;;;;;;2068955;28;20196;-58
2021/01/15 03:39:51;;;;;;;29.73;21.03;;;;;;;;;;2067845;28;20419;-56
2021/01/15 03:40:53;;;;;;;28.83;19.03;;;;;;;;;;2066693;28;20221;-59
2021/01/15 03:41:53;;;;;;;28.93;19.47;;;;;;;;;;2070417;28;20663;-59
2021/01/15 03:42:53;;;;;;;27.10;18.47;;;;;;;;;;2067860;28;20442;-61
2021/01/15 03:43:53;;;;;;;25.77;18.53;;;;;;;;;;2060449;28;20237;-55
2021/01/15 03:44:54;;;;;;;28.17;19.07;;;;;;;;;;2063930;28;20198;-57
2021/01/15 03:45:55;;;;;;;26.03;19.77;;;;;;;;;;2066803;28;20196;-56
2021/01/15 03:46:56;;;;;;;28.50;19.17;;;;;;;;;;2069350;28;20193;-56
2021/01/15 03:47:56;;;;;;;27.47;19.50;;;;;;;;;;2065981;28;21029;-62
2021/01/15 03:48:56;;;;;;;30.10;19.53;;;;;;;;;;2063643;28;20235;-58
2021/01/15 03:49:58;;;;;;;26.50;19.43;;;;;;;;;;2063368;28;20184;-59
2021/01/15 03:50:58;;;;;;;29.03;19.67;;;;;;;;;;2056934;28;20206;-63
2021/01/15 03:51:58;;;;;;;24.20;18.80;;;;;;;;;;2058354;28;20419;-58
2021/01/15 03:52:58;;;;;;;26.27;18.63;;;;;;;;;;2060706;28;20175;-57
2021/01/15 03:53:59;;;;;;;24.70;19.13;;;;;;;;;;2055892;28;20187;-56
2021/01/15 03:54:59;;;;;;;25.93;19.47;;;;;;;;;;2057614;28;20186;-58
2021/01/15 03:55:59;;;;;;;26.10;19.53;;;;;;;;;;2046125;28;20193;-61
2021/01/15 03:56:59;;;;;;;23.20;17.60;;;;;;;;;;2062112;28;21694;-59
2021/01/15 03:58:00;;;;;;;25.87;19.00;;;;;;;;;;2062015;28;20190;-58
2021/01/15 03:59:00;;;;;;;27.50;18.63;;;;;;;;;;2064158;28;20217;-57
2021/01/15 04:00:01;;;;;;;27.50;19.07;;;;;;;;;;2070414;28;20200;-60
2021/01/15 04:01:01;;;;;;;27.57;19.27;;;;;;;;;;2070688;28;20181;-59
2021/01/15 04:02:02;;;;;;;26.10;18.80;;;;;;;;;;2070582;28;20212;-57
2021/01/15 04:03:02;;;;;;;26.23;18.03;;;;;;;;;;2068937;28;20264;-58
2021/01/15 04:04:03;;;;;;;26.23;18.73;;;;;;;;;;2062840;28;20185;-56
2021/01/15 04:05:03;;;;;;;27.77;18.47;;;;;;;;;;2059642;28;20185;-58
2021/01/15 04:06:04;;;;;;;26.90;18.73;;;;;;;;;;2059006;28;20781;-60
2021/01/15 04:07:04;;;;;;;25.83;18.23;;;;;;;;;;2063058;28;20663;-56
2021/01/15 04:08:05;;;;;;;28.17;19.43;;;;;;;;;;2065303;28;20276;-60
2021/01/15 04:09:05;;;;;;;28.37;20.03;;;;;;;;;;2063622;28;20209;-59
2021/01/15 04:10:06;;;;;;;25.07;18.33;;;;;;;;;;2063433;28;20185;-57
2021/01/15 04:11:07;;;;;;;26.83;18.83;;;;;;;;;;2066885;28;20177;-60
2021/01/15 04:12:07;;;;;;;24.57;18.27;;;;;;;;;;2075937;28;20177;-59
2021/01/15 04:13:07;;;;;;;25.57;18.87;;;;;;;;;;2077598;28;20264;-60
2021/01/15 04:14:07;;;;;;;24.87;18.70;;;;;;;;;;2077006;28;20195;-59
2021/01/15 04:15:09;;;;;;;24.13;18.63;;;;;;;;;;2073395;28;20170;-61
2021/01/15 04:16:15;;;;;;;26.03;18.23;;;;;;;;;;2070539;28;20173;-60
2021/01/15 04:17:15;;;;;;;24.87;17.83;;;;;;;;;;2065754;28;21015;-57
2021/01/15 04:18:16;;;;;;;21.70;17.10;;;;;;;;;;2066177;28;20423;-58
2021/01/15 04:19:16;;;;;;;28.03;18.60;;;;;;;;;;2066940;28;20290;-61
2021/01/15 04:20:16;;;;;;;27.83;18.40;;;;;;;;;;2057294;28;20749;-57
2021/01/15 04:21:16;;;;;;;25.73;18.37;;;;;;;;;;2055562;28;20274;-56
2021/01/15 04:22:16;;;;;;;23.33;17.87;;;;;;;;;;2064161;28;20201;-61
2021/01/15 04:23:17;;;;;;;22.63;17.97;;;;;;;;;;2064218;28;20206;-60
2021/01/15 04:24:17;;;;;;;29.40;18.13;;;;;;;;;;2065020;28;20638;-57
2021/01/15 04:25:17;;;;;;;26.77;18.20;;;;;;;;;;2071676;28;20661;-58
2021/01/15 04:26:20;;;;;;;25.57;18.30;;;;;;;;;;2071011;28;20623;-57
2021/01/15 04:27:20;;;;;;;25.40;17.50;;;;;;;;;;2065396;28;20260;-59
2021/01/15 04:28:21;;;;;;;27.33;17.80;;;;;;;;;;2065641;28;20431;-58
2021/01/15 04:29:21;;;;;;;26.23;18.20;;;;;;;;;;2068561;28;20206;-61
2021/01/15 04:30:22;;;;;;;23.60;17.93;;;;;;;;;;2073517;28;20177;-59
2021/01/15 04:31:22;;;;;;;24.80;17.23;;;;;;;;;;2061796;28;20212;-57
2021/01/15 04:32:22;;;;;;;24.87;17.33;;;;;;;;;;2058289;28;20254;-58
2021/01/15 04:33:22;;;;;;;26.00;18.40;;;;;;;;;;2064819;28;20217;-58
2021/01/15 04:34:23;;;;;;;22.93;17.10;;;;;;;;;;2069204;28;20181;-57
2021/01/15 04:35:23;;;;;;;29.43;18.90;;;;;;;;;;2075809;28;20272;-59
2021/01/15 04:36:25;;;;;;;23.30;17.50;;;;;;;;;;2069564;28;20721;-56
2021/01/15 04:37:25;;;;;;;25.17;18.20;;;;;;;;;;2064407;28;20188;-57
2021/01/15 04:38:26;;;;;;;26.97;18.57;;;;;;;;;;2060776;28;20944;-59
2021/01/15 04:39:26;;;;;;;25.20;18.20;;;;;;;;;;2073786;28;20304;-58
2021/01/15 04:40:26;;;;;;;24.57;17.13;;;;;;;;;;2063199;28;20201;-59
2021/01/15 04:41:28;;;;;;;26.00;18.07;;;;;;;;;;2063271;28;20208;-59
2021/01/15 04:42:31;;;;;;;25.27;18.50;;;;;;;;;;2072722;28;20205;-57
2021/01/15 04:43:33;;;;;;;22.03;17.23;;;;;;;;;;2073754;28;20949;-59
2021/01/15 04:44:33;;;;;;;22.53;16.70;;;;;;;;;;2074160;28;20472;-58
2021/01/15 04:45:34;;;;;;;26.23;17.93;;;;;;;;;;2069904;28;20420;-60
2021/01/15 04:46:35;;;;;;;23.70;17.83;;;;;;;;;;2061661;28;20647;-59
2021/01/15 04:47:36;;;;;;;27.20;18.83;;;;;;;;;;2055894;28;20651;-57
2021/01/15 04:48:38;;;;;;;24.27;17.60;;;;;;;;;;2061994;28;20704;-56
2021/01/15 04:49:38;;;;;;;27.70;18.17;;;;;;;;;;2073387;28;20445;-60
2021/01/15 04:50:38;;;;;;;25.37;17.80;;;;;;;;;;2071956;28;20434;-61
2021/01/15 04:51:39;;;;;;;25.50;17.60;;;;;;;;;;2073523;28;20267;-60
2021/01/15 04:52:44;;;;;;;29.13;18.50;;;;;;;;;;2064301;28;20289;-54
2021/01/15 04:53:53;;;;;;;25.97;18.63;;;;;;;;;;2057096;28;20197;-57
2021/01/15 04:54:56;;;;;;;25.87;17.90;;;;;;;;;;2067411;28;20427;-56
2021/01/15 04:55:57;;;;;;;26.23;16.97;;;;;;;;;;2069807;28;20407;-57
2021/01/15 04:57:02;;;;;;;25.97;17.43;;;;;;;;;;2063849;28;20426;-58
2021/01/15 04:58:05;;;;;;;25.93;18.27;;;;;;;;;;2063409;28;20927;-56
2021/01/15 04:59:07;;;;;;;26.77;16.93;;;;;;;;;;2064850;28;20928;-57
2021/01/15 05:00:09;;;;;;;23.13;16.97;;;;;;;;;;2066409;28;20466;-60
2021/01/15 05:01:11;;;;;;;24.13;17.27;;;;;;;;;;2070940;28;20430;-58
2021/01/15 05:02:12;;;;;;;24.70;16.77;;;;;;;;;;2063704;28;20944;-61
2021/01/15 05:03:14;;;;;;;23.60;16.53;;;;;;;;;;2063576;28;20252;-60
2021/01/15 05:04:18;;;;;;;25.73;17.50;;;;;;;;;;2069620;28;20180;-62
2021/01/15 05:05:19;;;;;;;25.07;17.87;;;;;;;;;;2069987;28;20410;-58
2021/01/15 05:06:20;;;;;;;25.43;17.90;;;;;;;;;;2057794;28;20416;-57
2021/01/15 05:07:23;;;;;;;25.50;17.97;;;;;;;;;;2062051;28;20423;-62
2021/01/15 05:08:28;;;;;;;24.63;18.20;;;;;;;;;;2071159;28;20190;-62
2021/01/15 05:09:36;;;;;;;25.80;18.10;;;;;;;;;;2073577;28;20465;-62
2021/01/15 05:10:37;;;;;;;23.23;16.53;;;;;;;;;;2059642;28;20529;-61
2021/01/15 05:11:38;;;;;;;21.97;16.83;;;;;;;;;;2064773;28;20407;-57
2021/01/15 05:12:41;;;;;;;24.13;17.60;;;;;;;;;;2067520;28;20461;-57
2021/01/15 05:13:41;;;;;;;23.03;17.30;;;;;;;;;;2069095;28;20169;-58
2021/01/15 05:14:42;;;;;;;24.80;17.33;;;;;;;;;;2078601;28;20426;-57
2021/01/15 05:15:43;;;;;;;26.37;16.93;;;;;;;;;;2073007;28;20193;-55
2021/01/15 05:16:44;;;;;;;22.37;17.17;;;;;;;;;;2064771;28;20209;-56
2021/01/15 05:17:45;;;;;;;25.60;18.00;;;;;;;;;;2065274;28;20502;-55
2021/01/15 05:18:45;;;;;;;25.27;16.77;;;;;;;;;;2063892;28;20423;-57
2021/01/15 05:19:45;;;;;;;24.57;16.70;;;;;;;;;;2064786;28;20212;-58
2021/01/15 05:20:46;;;;;;;26.90;17.80;;;;;;;;;;2065961;28;20181;-58
2021/01/15 05:21:50;;;;;;;22.47;17.03;;;;;;;;;;2064710;28;20181;-60
2021/01/15 05:22:50;;;;;;;25.80;18.00;;;;;;;;;;2060899;28;20206;-60
2021/01/15 05:23:52;;;;;;;26.90;17.57;;;;;;;;;;2058858;28;20503;-59
2021/01/15 05:24:52;;;;;;;24.67;17.03;;;;;;;;;;2053825;28;20677;-60
2021/01/15 05:25:53;;;;;;;23.87;16.43;;;;;;;;;;2066261;28;20478;-60
2021/01/15 05:26:53;;;;;;;24.67;17.30;;;;;;;;;;2067416;28;20177;-59
2021/01/15 05:27:54;;;;;;;24.20;16.77;;;;;;;;;;2069628;28;20185;-56
2021/01/15 05:28:55;;;;;;;22.37;16.17;;;;;;;;;;2073199;28;20613;-58
2021/01/15 05:30:23;;;;;;;25.80;17.67;;;;;;;;;;2071579;28;20223;-61
2021/01/15 05:31:23;;;;;;;29.23;18.13;;;;;;;;;;2065158;28;20193;-58
2021/01/15 05:32:28;;;;;;;25.53;17.27;;;;;;;;;;2062435;28;20465;-60
2021/01/15 05:33:29;;;;;;;26.37;19.07;;;;;;;;;;2064008;28;20169;-57
2021/01/15 05:34:29;;;;;;;24.87;16.73;;;;;;;;;;2075113;28;20444;-58
2021/01/15 05:35:45;;;;;;;23.70;17.17;;;;;;;;;;2071854;28;20236;-58
2021/01/15 05:36:47;;;;;;;26.13;17.87;;;;;;;;;;2070835;28;20181;-60
2021/01/15 05:37:58;;;;;;;23.57;17.00;;;;;;;;;;2067749;28;20418;-61
2021/01/15 05:39:08;;;;;;;25.17;17.40;;;;;;;;;;2070336;28;20403;-58
2021/01/15 05:40:09;;;;;;;25.33;17.90;;;;;;;;;;2067764;28;20185;-58
2021/01/15 05:41:20;;;;;;;24.13;16.40;;;;;;;;;;2075124;28;20425;-61
2021/01/15 05:42:21;;;;;;;23.70;18.30;;;;;;;;;;2060158;28;20820;-58
2021/01/15 05:43:22;;;;;;;25.17;19.40;;;;;;;;;;2063540;28;20471;-59
2021/01/15 05:44:30;;;;;;;27.20;18.97;;;;;;;;;;2072661;28;20195;-61
2021/01/15 05:45:30;;;;;;;26.20;18.07;;;;;;;;;;2069470;28;20926;-64
2021/01/15 05:46:31;;;;;;;24.30;17.53;;;;;;;;;;2060746;28;20457;-61
2021/01/15 05:47:57;;;;;;;28.43;19.40;;;;;;;;;;2047769;29;20311;-57
2021/01/15 05:49:06;;;;;;;30.67;19.20;;;;;;;;;;2059112;28;20201;-57
2021/01/15 05:50:07;;;;;;;23.97;16.73;;;;;;;;;;2075211;28;20440;-57
2021/01/15 05:51:20;;;;;;;26.53;17.77;;;;;;;;;;2070090;28;20793;-60
2021/01/15 05:52:21;;;;;;;28.63;18.47;;;;;;;;;;2073225;28;20211;-59
2021/01/15 05:53:22;;;;;;;28.37;18.37;;;;;;;;;;2061447;28;20420;-58
2021/01/15 05:54:30;;;;;;;24.20;18.07;;;;;;;;;;2066598;28;20177;-62
2021/01/15 05:55:30;;;;;;;27.63;18.20;;;;;;;;;;2073755;28;20450;-60
2021/01/15 05:56:39;;;;;;;25.80;17.53;;;;;;;;;;2071455;28;20417;-59
2021/01/15 05:57:40;;;;;;;23.27;16.70;;;;;;;;;;2073911;28;20729;-58
2021/01/15 05:58:58;;;;;;;25.67;17.17;;;;;;;;;;2061612;28;20427;-64
2021/01/15 05:59:59;;;;;;;25.10;17.73;;;;;;;;;;2057402;28;20178;-65
2021/01/15 06:00:59;;;;;;;24.50;17.17;;;;;;;;;;2062421;28;20427;-59
2021/01/15 06:02:04;;;;;;;24.23;16.13;;;;;;;;;;2071373;28;20199;-59
2021/01/15 06:03:05;;;;;;;23.60;17.90;;;;;;;;;;2073722;28;20272;-59
2021/01/15 06:04:06;;;;;;;25.87;18.07;;;;;;;;;;2071955;28;20957;-59
2021/01/15 06:05:06;;;;;;;25.67;17.93;;;;;;;;;;2076590;28;20426;-60
2021/01/15 06:06:07;;;;;;;23.87;17.97;;;;;;;;;;2064617;28;20280;-59
2021/01/15 06:07:07;;;;;;;26.90;18.07;;;;;;;;;;2062176;28;20181;-58